sensor_id;sensor_type;location;lat;lon;timestamp;P1;durP1;ratioP1;P2;durP2;ratioP2
23718;SDS011;43322;52.230;5.702;2022-12-07T00:01:21;9.20;;;6.47;;
23718;SDS011;43322;52.230;5.702;2022-12-07T00:03:51;6.93;;;6.35;;
23718;SDS011;43322;52.230;5.702;2022-12-07T00:06:19;6.53;;;5.78;;
23718;SDS011;43322;52.230;5.702;2022-12-07T00:08:47;6.28;;;5.75;;
23718;SDS011;43322;52.230;5.702;2022-12-07T00:11:15;6.28;;;5.78;;
23718;SDS011;43322;52.230;5.702;2022-12-07T00:13:43;6.57;;;5.70;;
23718;SDS011;43322;52.230;5.702;2022-12-07T00:16:12;6.00;;;5.50;;
23718;SDS011;43322;52.230;5.702;2022-12-07T00:18:40;6.75;;;5.72;;
23718;SDS011;43322;52.230;5.702;2022-12-07T00:21:10;6.68;;;5.78;;
23718;SDS011;43322;52.230;5.702;2022-12-07T00:23:39;6.80;;;6.20;;
23718;SDS011;43322;52.230;5.702;2022-12-07T00:26:07;6.95;;;6.35;;
23718;SDS011;43322;52.230;5.702;2022-12-07T00:28:35;6.68;;;5.57;;
23718;SDS011;43322;52.230;5.702;2022-12-07T00:31:03;7.90;;;5.45;;
23718;SDS011;43322;52.230;5.702;2022-12-07T00:33:32;6.57;;;5.78;;
23718;SDS011;43322;52.230;5.702;2022-12-07T00:36:00;7.97;;;5.53;;
23718;SDS011;43322;52.230;5.702;2022-12-07T00:38:29;8.10;;;5.50;;
23718;SDS011;43322;52.230;5.702;2022-12-07T00:40:58;8.80;;;5.50;;
23718;SDS011;43322;52.230;5.702;2022-12-07T00:43:26;8.30;;;5.88;;
23718;SDS011;43322;52.230;5.702;2022-12-07T00:45:53;7.30;;;5.78;;
23718;SDS011;43322;52.230;5.702;2022-12-07T00:48:21;6.22;;;5.38;;
23718;SDS011;43322;52.230;5.702;2022-12-07T00:50:48;8.02;;;5.53;;
23718;SDS011;43322;52.230;5.702;2022-12-07T00:53:16;6.82;;;5.50;;
23718;SDS011;43322;52.230;5.702;2022-12-07T00:55:45;7.10;;;5.18;;
23718;SDS011;43322;52.230;5.702;2022-12-07T00:58:12;6.38;;;5.53;;
23718;SDS011;43322;52.230;5.702;2022-12-07T01:00:39;9.93;;;5.70;;
23718;SDS011;43322;52.230;5.702;2022-12-07T01:03:08;8.95;;;5.97;;
23718;SDS011;43322;52.230;5.702;2022-12-07T01:05:36;7.03;;;5.47;;
23718;SDS011;43322;52.230;5.702;2022-12-07T01:08:04;6.80;;;5.10;;
23718;SDS011;43322;52.230;5.702;2022-12-07T01:10:31;7.20;;;5.53;;
23718;SDS011;43322;52.230;5.702;2022-12-07T01:12:59;6.10;;;5.50;;
23718;SDS011;43322;52.230;5.702;2022-12-07T01:15:26;5.55;;;5.00;;
23718;SDS011;43322;52.230;5.702;2022-12-07T01:17:53;9.70;;;5.65;;
23718;SDS011;43322;52.230;5.702;2022-12-07T01:20:20;6.28;;;5.10;;
23718;SDS011;43322;52.230;5.702;2022-12-07T01:22:47;12.02;;;5.22;;
23718;SDS011;43322;52.230;5.702;2022-12-07T01:25:14;7.88;;;5.53;;
23718;SDS011;43322;52.230;5.702;2022-12-07T01:27:42;7.43;;;4.72;;
23718;SDS011;43322;52.230;5.702;2022-12-07T01:30:11;6.95;;;4.95;;
23718;SDS011;43322;52.230;5.702;2022-12-07T01:32:39;7.15;;;5.20;;
23718;SDS011;43322;52.230;5.702;2022-12-07T01:35:06;5.63;;;4.40;;
23718;SDS011;43322;52.230;5.702;2022-12-07T01:37:34;9.38;;;5.68;;
23718;SDS011;43322;52.230;5.702;2022-12-07T01:40:02;9.35;;;5.40;;
23718;SDS011;43322;52.230;5.702;2022-12-07T01:42:29;7.65;;;5.40;;
23718;SDS011;43322;52.230;5.702;2022-12-07T01:48:12;9.18;;;4.55;;
23718;SDS011;43322;52.230;5.702;2022-12-07T01:50:44;7.35;;;5.00;;
23718;SDS011;43322;52.230;5.702;2022-12-07T01:53:14;9.23;;;4.93;;
23718;SDS011;43322;52.230;5.702;2022-12-07T01:55:43;4.65;;;4.20;;
23718;SDS011;43322;52.230;5.702;2022-12-07T01:58:14;5.20;;;4.30;;
23718;SDS011;43322;52.230;5.702;2022-12-07T02:00:42;5.05;;;4.65;;
23718;SDS011;43322;52.230;5.702;2022-12-07T02:03:09;5.30;;;4.32;;
23718;SDS011;43322;52.230;5.702;2022-12-07T02:05:41;6.43;;;4.38;;
23718;SDS011;43322;52.230;5.702;2022-12-07T02:08:10;5.13;;;4.32;;
23718;SDS011;43322;52.230;5.702;2022-12-07T02:10:37;4.70;;;4.22;;
23718;SDS011;43322;52.230;5.702;2022-12-07T02:13:05;6.05;;;4.60;;
23718;SDS011;43322;52.230;5.702;2022-12-07T02:15:39;4.97;;;4.25;;
23718;SDS011;43322;52.230;5.702;2022-12-07T02:18:16;9.00;;;4.22;;
23718;SDS011;43322;52.230;5.702;2022-12-07T02:20:53;4.00;;;3.70;;
23718;SDS011;43322;52.230;5.702;2022-12-07T02:23:36;6.53;;;3.88;;
23718;SDS011;43322;52.230;5.702;2022-12-07T02:26:37;7.22;;;3.65;;
23718;SDS011;43322;52.230;5.702;2022-12-07T02:29:26;6.15;;;4.00;;
23718;SDS011;43322;52.230;5.702;2022-12-07T02:31:58;5.18;;;3.92;;
23718;SDS011;43322;52.230;5.702;2022-12-07T02:34:33;5.30;;;4.10;;
23718;SDS011;43322;52.230;5.702;2022-12-07T02:37:09;6.57;;;4.00;;
23718;SDS011;43322;52.230;5.702;2022-12-07T02:39:44;9.90;;;4.50;;
23718;SDS011;43322;52.230;5.702;2022-12-07T02:42:17;4.22;;;3.03;;
23718;SDS011;43322;52.230;5.702;2022-12-07T02:44:51;6.25;;;4.35;;
23718;SDS011;43322;52.230;5.702;2022-12-07T02:47:19;11.48;;;4.03;;
23718;SDS011;43322;52.230;5.702;2022-12-07T02:49:49;11.63;;;3.95;;
23718;SDS011;43322;52.230;5.702;2022-12-07T02:52:16;5.93;;;3.72;;
23718;SDS011;43322;52.230;5.702;2022-12-07T02:54:44;11.18;;;4.00;;
23718;SDS011;43322;52.230;5.702;2022-12-07T02:57:15;11.65;;;3.97;;
23718;SDS011;43322;52.230;5.702;2022-12-07T02:59:59;9.52;;;3.55;;
23718;SDS011;43322;52.230;5.702;2022-12-07T03:02:31;7.13;;;3.78;;
23718;SDS011;43322;52.230;5.702;2022-12-07T03:05:10;7.80;;;3.67;;
23718;SDS011;43322;52.230;5.702;2022-12-07T03:07:49;10.73;;;3.97;;
23718;SDS011;43322;52.230;5.702;2022-12-07T03:10:22;4.38;;;3.83;;
23718;SDS011;43322;52.230;5.702;2022-12-07T03:12:56;9.82;;;4.10;;
23718;SDS011;43322;52.230;5.702;2022-12-07T03:15:31;4.43;;;3.42;;
23718;SDS011;43322;52.230;5.702;2022-12-07T03:17:59;8.40;;;3.80;;
23718;SDS011;43322;52.230;5.702;2022-12-07T03:20:29;9.50;;;3.35;;
23718;SDS011;43322;52.230;5.702;2022-12-07T03:22:58;8.27;;;3.90;;
23718;SDS011;43322;52.230;5.702;2022-12-07T03:25:26;8.00;;;3.95;;
23718;SDS011;43322;52.230;5.702;2022-12-07T03:27:54;8.80;;;4.22;;
23718;SDS011;43322;52.230;5.702;2022-12-07T03:30:24;12.48;;;4.47;;
23718;SDS011;43322;52.230;5.702;2022-12-07T03:32:56;5.53;;;3.90;;
23718;SDS011;43322;52.230;5.702;2022-12-07T03:35:27;15.00;;;4.35;;
23718;SDS011;43322;52.230;5.702;2022-12-07T03:37:59;5.38;;;4.10;;
23718;SDS011;43322;52.230;5.702;2022-12-07T03:40:32;4.18;;;3.70;;
23718;SDS011;43322;52.230;5.702;2022-12-07T03:43:01;9.55;;;4.10;;
23718;SDS011;43322;52.230;5.702;2022-12-07T03:45:31;8.75;;;3.92;;
23718;SDS011;43322;52.230;5.702;2022-12-07T03:48:05;10.52;;;3.75;;
23718;SDS011;43322;52.230;5.702;2022-12-07T03:50:37;6.32;;;3.70;;
23718;SDS011;43322;52.230;5.702;2022-12-07T03:53:09;5.55;;;3.63;;
23718;SDS011;43322;52.230;5.702;2022-12-07T03:55:40;7.00;;;3.55;;
23718;SDS011;43322;52.230;5.702;2022-12-07T03:58:10;5.82;;;3.67;;
23718;SDS011;43322;52.230;5.702;2022-12-07T04:00:40;8.70;;;3.60;;
23718;SDS011;43322;52.230;5.702;2022-12-07T04:03:09;10.85;;;4.18;;
23718;SDS011;43322;52.230;5.702;2022-12-07T04:05:36;9.63;;;4.20;;
23718;SDS011;43322;52.230;5.702;2022-12-07T04:08:03;8.27;;;3.72;;
23718;SDS011;43322;52.230;5.702;2022-12-07T04:10:30;5.45;;;3.47;;
23718;SDS011;43322;52.230;5.702;2022-12-07T04:12:57;8.55;;;3.42;;
23718;SDS011;43322;52.230;5.702;2022-12-07T04:15:23;8.23;;;3.50;;
23718;SDS011;43322;52.230;5.702;2022-12-07T04:17:50;8.65;;;3.65;;
23718;SDS011;43322;52.230;5.702;2022-12-07T04:20:18;6.38;;;3.28;;
23718;SDS011;43322;52.230;5.702;2022-12-07T04:22:45;7.18;;;3.50;;
23718;SDS011;43322;52.230;5.702;2022-12-07T04:25:12;7.22;;;3.30;;
23718;SDS011;43322;52.230;5.702;2022-12-07T04:27:39;6.10;;;2.95;;
23718;SDS011;43322;52.230;5.702;2022-12-07T04:30:06;7.10;;;3.67;;
23718;SDS011;43322;52.230;5.702;2022-12-07T04:32:33;8.60;;;3.47;;
23718;SDS011;43322;52.230;5.702;2022-12-07T04:35:00;4.72;;;3.70;;
23718;SDS011;43322;52.230;5.702;2022-12-07T04:37:28;4.20;;;3.03;;
23718;SDS011;43322;52.230;5.702;2022-12-07T04:39:55;8.88;;;3.20;;
23718;SDS011;43322;52.230;5.702;2022-12-07T04:42:22;10.38;;;3.83;;
23718;SDS011;43322;52.230;5.702;2022-12-07T04:44:48;6.70;;;3.45;;
23718;SDS011;43322;52.230;5.702;2022-12-07T04:47:15;9.38;;;3.70;;
23718;SDS011;43322;52.230;5.702;2022-12-07T04:49:42;8.65;;;3.30;;
23718;SDS011;43322;52.230;5.702;2022-12-07T04:52:09;4.45;;;2.72;;
23718;SDS011;43322;52.230;5.702;2022-12-07T04:54:37;6.50;;;3.03;;
23718;SDS011;43322;52.230;5.702;2022-12-07T04:57:04;4.13;;;3.40;;
23718;SDS011;43322;52.230;5.702;2022-12-07T04:59:31;3.47;;;3.17;;
23718;SDS011;43322;52.230;5.702;2022-12-07T05:01:57;3.88;;;3.13;;
23718;SDS011;43322;52.230;5.702;2022-12-07T05:04:24;7.47;;;3.08;;
23718;SDS011;43322;52.230;5.702;2022-12-07T05:06:51;7.30;;;3.58;;
23718;SDS011;43322;52.230;5.702;2022-12-07T05:09:17;3.83;;;2.80;;
23718;SDS011;43322;52.230;5.702;2022-12-07T05:11:46;3.10;;;2.88;;
23718;SDS011;43322;52.230;5.702;2022-12-07T05:14:14;3.72;;;3.08;;
23718;SDS011;43322;52.230;5.702;2022-12-07T05:16:42;3.40;;;2.97;;
23718;SDS011;43322;52.230;5.702;2022-12-07T05:19:10;5.88;;;3.08;;
23718;SDS011;43322;52.230;5.702;2022-12-07T05:21:38;7.90;;;3.60;;
23718;SDS011;43322;52.230;5.702;2022-12-07T05:24:06;4.15;;;2.83;;
23718;SDS011;43322;52.230;5.702;2022-12-07T05:26:33;5.13;;;3.05;;
23718;SDS011;43322;52.230;5.702;2022-12-07T05:29:02;7.28;;;2.92;;
23718;SDS011;43322;52.230;5.702;2022-12-07T05:31:29;5.22;;;3.03;;
23718;SDS011;43322;52.230;5.702;2022-12-07T05:33:56;3.08;;;2.67;;
23718;SDS011;43322;52.230;5.702;2022-12-07T05:36:23;5.55;;;3.63;;
23718;SDS011;43322;52.230;5.702;2022-12-07T05:38:49;6.25;;;3.00;;
23718;SDS011;43322;52.230;5.702;2022-12-07T05:41:17;15.35;;;3.75;;
23718;SDS011;43322;52.230;5.702;2022-12-07T05:44:04;4.38;;;3.05;;
23718;SDS011;43322;52.230;5.702;2022-12-07T05:46:31;4.63;;;3.45;;
23718;SDS011;43322;52.230;5.702;2022-12-07T05:48:58;4.85;;;2.88;;
23718;SDS011;43322;52.230;5.702;2022-12-07T05:51:25;6.43;;;2.97;;
23718;SDS011;43322;52.230;5.702;2022-12-07T05:53:53;6.15;;;2.88;;
23718;SDS011;43322;52.230;5.702;2022-12-07T05:56:19;7.20;;;3.67;;
23718;SDS011;43322;52.230;5.702;2022-12-07T05:58:46;11.63;;;3.70;;
23718;SDS011;43322;52.230;5.702;2022-12-07T06:01:32;8.38;;;3.53;;
23718;SDS011;43322;52.230;5.702;2022-12-07T06:03:59;6.35;;;4.00;;
23718;SDS011;43322;52.230;5.702;2022-12-07T06:06:26;8.05;;;3.80;;
23718;SDS011;43322;52.230;5.702;2022-12-07T06:08:52;7.45;;;3.45;;
23718;SDS011;43322;52.230;5.702;2022-12-07T06:11:19;10.05;;;3.88;;
23718;SDS011;43322;52.230;5.702;2022-12-07T06:14:03;6.78;;;3.78;;
23718;SDS011;43322;52.230;5.702;2022-12-07T06:16:32;7.38;;;3.47;;
23718;SDS011;43322;52.230;5.702;2022-12-07T06:18:58;7.40;;;3.67;;
23718;SDS011;43322;52.230;5.702;2022-12-07T06:21:25;10.45;;;4.05;;
23718;SDS011;43322;52.230;5.702;2022-12-07T06:23:52;8.63;;;3.72;;
23718;SDS011;43322;52.230;5.702;2022-12-07T06:26:19;12.18;;;4.03;;
23718;SDS011;43322;52.230;5.702;2022-12-07T06:28:46;10.13;;;4.03;;
23718;SDS011;43322;52.230;5.702;2022-12-07T06:31:13;9.45;;;3.78;;
23718;SDS011;43322;52.230;5.702;2022-12-07T06:33:41;4.85;;;3.40;;
23718;SDS011;43322;52.230;5.702;2022-12-07T06:36:08;10.85;;;3.90;;
23718;SDS011;43322;52.230;5.702;2022-12-07T06:38:35;7.20;;;3.60;;
23718;SDS011;43322;52.230;5.702;2022-12-07T06:41:02;5.40;;;3.90;;
23718;SDS011;43322;52.230;5.702;2022-12-07T06:43:29;10.68;;;3.40;;
23718;SDS011;43322;52.230;5.702;2022-12-07T06:45:56;7.75;;;3.90;;
23718;SDS011;43322;52.230;5.702;2022-12-07T06:48:23;6.63;;;3.90;;
23718;SDS011;43322;52.230;5.702;2022-12-07T06:50:51;6.53;;;4.03;;
23718;SDS011;43322;52.230;5.702;2022-12-07T06:53:18;8.75;;;3.33;;
23718;SDS011;43322;52.230;5.702;2022-12-07T06:55:45;9.07;;;4.25;;
23718;SDS011;43322;52.230;5.702;2022-12-07T06:58:12;10.00;;;4.00;;
23718;SDS011;43322;52.230;5.702;2022-12-07T07:00:38;6.95;;;3.90;;
23718;SDS011;43322;52.230;5.702;2022-12-07T07:03:05;7.47;;;4.22;;
23718;SDS011;43322;52.230;5.702;2022-12-07T07:05:32;5.63;;;3.58;;
23718;SDS011;43322;52.230;5.702;2022-12-07T07:08:00;5.63;;;3.60;;
23718;SDS011;43322;52.230;5.702;2022-12-07T07:10:27;5.28;;;3.25;;
23718;SDS011;43322;52.230;5.702;2022-12-07T07:12:54;4.35;;;3.42;;
23718;SDS011;43322;52.230;5.702;2022-12-07T07:15:21;5.75;;;3.20;;
23718;SDS011;43322;52.230;5.702;2022-12-07T07:17:48;4.88;;;3.13;;
23718;SDS011;43322;52.230;5.702;2022-12-07T07:20:14;5.55;;;3.58;;
23718;SDS011;43322;52.230;5.702;2022-12-07T07:22:41;6.75;;;3.22;;
23718;SDS011;43322;52.230;5.702;2022-12-07T07:25:09;8.35;;;3.78;;
23718;SDS011;43322;52.230;5.702;2022-12-07T07:27:36;4.10;;;3.58;;
23718;SDS011;43322;52.230;5.702;2022-12-07T07:30:03;10.45;;;4.20;;
23718;SDS011;43322;52.230;5.702;2022-12-07T07:32:31;5.35;;;3.53;;
23718;SDS011;43322;52.230;5.702;2022-12-07T07:34:58;4.80;;;3.47;;
23718;SDS011;43322;52.230;5.702;2022-12-07T07:37:25;3.80;;;3.50;;
23718;SDS011;43322;52.230;5.702;2022-12-07T07:39:52;5.22;;;4.00;;
23718;SDS011;43322;52.230;5.702;2022-12-07T07:42:20;3.15;;;2.95;;
23718;SDS011;43322;52.230;5.702;2022-12-07T07:44:47;7.35;;;3.78;;
23718;SDS011;43322;52.230;5.702;2022-12-07T07:47:14;5.38;;;3.50;;
23718;SDS011;43322;52.230;5.702;2022-12-07T07:49:41;6.90;;;4.53;;
23718;SDS011;43322;52.230;5.702;2022-12-07T07:52:07;10.02;;;4.75;;
23718;SDS011;43322;52.230;5.702;2022-12-07T07:54:34;6.93;;;3.80;;
23718;SDS011;43322;52.230;5.702;2022-12-07T07:57:01;7.90;;;3.85;;
23718;SDS011;43322;52.230;5.702;2022-12-07T07:59:29;9.98;;;4.60;;
23718;SDS011;43322;52.230;5.702;2022-12-07T08:01:56;14.52;;;4.53;;
23718;SDS011;43322;52.230;5.702;2022-12-07T08:04:22;5.82;;;3.67;;
23718;SDS011;43322;52.230;5.702;2022-12-07T08:06:49;8.15;;;3.80;;
23718;SDS011;43322;52.230;5.702;2022-12-07T08:09:16;7.25;;;3.35;;
23718;SDS011;43322;52.230;5.702;2022-12-07T08:11:42;9.13;;;4.22;;
23718;SDS011;43322;52.230;5.702;2022-12-07T08:14:10;5.00;;;3.60;;
23718;SDS011;43322;52.230;5.702;2022-12-07T08:16:38;7.13;;;3.55;;
23718;SDS011;43322;52.230;5.702;2022-12-07T08:19:05;5.05;;;3.63;;
23718;SDS011;43322;52.230;5.702;2022-12-07T08:21:32;4.88;;;3.40;;
23718;SDS011;43322;52.230;5.702;2022-12-07T08:23:59;8.15;;;3.53;;
23718;SDS011;43322;52.230;5.702;2022-12-07T08:26:26;6.47;;;3.88;;
23718;SDS011;43322;52.230;5.702;2022-12-07T08:28:53;8.73;;;3.60;;
23718;SDS011;43322;52.230;5.702;2022-12-07T08:31:19;11.85;;;3.80;;
23718;SDS011;43322;52.230;5.702;2022-12-07T08:33:48;7.43;;;3.65;;
23718;SDS011;43322;52.230;5.702;2022-12-07T08:36:15;10.48;;;3.38;;
23718;SDS011;43322;52.230;5.702;2022-12-07T08:38:43;16.75;;;4.53;;
23718;SDS011;43322;52.230;5.702;2022-12-07T08:41:10;10.05;;;3.60;;
23718;SDS011;43322;52.230;5.702;2022-12-07T08:43:38;5.80;;;4.00;;
23718;SDS011;43322;52.230;5.702;2022-12-07T08:46:06;8.77;;;4.05;;
23718;SDS011;43322;52.230;5.702;2022-12-07T08:48:37;9.10;;;3.88;;
23718;SDS011;43322;52.230;5.702;2022-12-07T08:51:08;5.18;;;3.88;;
23718;SDS011;43322;52.230;5.702;2022-12-07T08:53:35;6.60;;;3.42;;
23718;SDS011;43322;52.230;5.702;2022-12-07T08:56:04;10.27;;;3.78;;
23718;SDS011;43322;52.230;5.702;2022-12-07T08:58:34;6.68;;;3.30;;
23718;SDS011;43322;52.230;5.702;2022-12-07T09:01:02;7.80;;;3.42;;
23718;SDS011;43322;52.230;5.702;2022-12-07T09:03:29;11.40;;;4.03;;
23718;SDS011;43322;52.230;5.702;2022-12-07T09:05:56;6.95;;;3.83;;
23718;SDS011;43322;52.230;5.702;2022-12-07T09:08:26;8.23;;;4.75;;
23718;SDS011;43322;52.230;5.702;2022-12-07T09:10:55;7.80;;;4.45;;
23718;SDS011;43322;52.230;5.702;2022-12-07T09:13:22;10.85;;;4.32;;
23718;SDS011;43322;52.230;5.702;2022-12-07T09:15:49;8.75;;;4.70;;
23718;SDS011;43322;52.230;5.702;2022-12-07T09:18:16;9.13;;;5.18;;
23718;SDS011;43322;52.230;5.702;2022-12-07T09:20:43;5.50;;;4.72;;
23718;SDS011;43322;52.230;5.702;2022-12-07T09:23:10;10.88;;;5.18;;
23718;SDS011;43322;52.230;5.702;2022-12-07T09:25:38;9.85;;;4.82;;
23718;SDS011;43322;52.230;5.702;2022-12-07T09:28:05;19.27;;;5.15;;
23718;SDS011;43322;52.230;5.702;2022-12-07T09:30:31;12.88;;;5.63;;
23718;SDS011;43322;52.230;5.702;2022-12-07T09:32:58;9.02;;;4.80;;
23718;SDS011;43322;52.230;5.702;2022-12-07T09:35:25;7.35;;;4.43;;
23718;SDS011;43322;52.230;5.702;2022-12-07T09:37:52;10.82;;;4.50;;
23718;SDS011;43322;52.230;5.702;2022-12-07T09:40:20;11.43;;;4.20;;
23718;SDS011;43322;52.230;5.702;2022-12-07T09:42:51;10.73;;;4.25;;
23718;SDS011;43322;52.230;5.702;2022-12-07T09:45:21;5.03;;;3.53;;
23718;SDS011;43322;52.230;5.702;2022-12-07T09:47:50;11.07;;;4.35;;
23718;SDS011;43322;52.230;5.702;2022-12-07T09:50:19;9.55;;;4.55;;
23718;SDS011;43322;52.230;5.702;2022-12-07T09:52:47;8.52;;;3.75;;
23718;SDS011;43322;52.230;5.702;2022-12-07T09:55:16;8.82;;;4.20;;
23718;SDS011;43322;52.230;5.702;2022-12-07T09:57:50;7.78;;;4.63;;
23718;SDS011;43322;52.230;5.702;2022-12-07T10:00:19;10.77;;;4.80;;
23718;SDS011;43322;52.230;5.702;2022-12-07T10:02:49;11.45;;;4.32;;
23718;SDS011;43322;52.230;5.702;2022-12-07T10:05:22;15.27;;;5.57;;
23718;SDS011;43322;52.230;5.702;2022-12-07T10:07:52;9.27;;;5.25;;
23718;SDS011;43322;52.230;5.702;2022-12-07T10:10:20;13.05;;;5.30;;
23718;SDS011;43322;52.230;5.702;2022-12-07T10:12:56;12.38;;;5.40;;
23718;SDS011;43322;52.230;5.702;2022-12-07T10:15:45;11.07;;;4.38;;
23718;SDS011;43322;52.230;5.702;2022-12-07T10:18:25;12.13;;;4.60;;
23718;SDS011;43322;52.230;5.702;2022-12-07T10:21:02;10.45;;;4.63;;
23718;SDS011;43322;52.230;5.702;2022-12-07T10:23:36;5.55;;;4.20;;
23718;SDS011;43322;52.230;5.702;2022-12-07T10:26:19;13.15;;;4.28;;
23718;SDS011;43322;52.230;5.702;2022-12-07T10:28:53;12.35;;;4.63;;
23718;SDS011;43322;52.230;5.702;2022-12-07T10:31:22;4.85;;;3.75;;
23718;SDS011;43322;52.230;5.702;2022-12-07T10:33:50;5.78;;;3.63;;
23718;SDS011;43322;52.230;5.702;2022-12-07T10:36:19;7.97;;;3.95;;
23718;SDS011;43322;52.230;5.702;2022-12-07T10:38:49;7.95;;;3.88;;
23718;SDS011;43322;52.230;5.702;2022-12-07T10:41:17;6.38;;;3.65;;
23718;SDS011;43322;52.230;5.702;2022-12-07T10:43:49;6.38;;;3.35;;
23718;SDS011;43322;52.230;5.702;2022-12-07T10:46:23;8.27;;;3.83;;
23718;SDS011;43322;52.230;5.702;2022-12-07T10:49:19;10.38;;;2.90;;
23718;SDS011;43322;52.230;5.702;2022-12-07T10:52:06;4.88;;;2.80;;
23718;SDS011;43322;52.230;5.702;2022-12-07T10:54:43;5.63;;;2.38;;
23718;SDS011;43322;52.230;5.702;2022-12-07T10:57:22;3.13;;;2.10;;
23718;SDS011;43322;52.230;5.702;2022-12-07T11:00:18;4.90;;;1.92;;
23718;SDS011;43322;52.230;5.702;2022-12-07T11:02:55;3.28;;;1.85;;
23718;SDS011;43322;52.230;5.702;2022-12-07T11:05:39;2.75;;;1.60;;
23718;SDS011;43322;52.230;5.702;2022-12-07T11:08:18;3.97;;;2.15;;
23718;SDS011;43322;52.230;5.702;2022-12-07T11:10:55;5.22;;;2.08;;
23718;SDS011;43322;52.230;5.702;2022-12-07T11:13:29;3.83;;;2.13;;
23718;SDS011;43322;52.230;5.702;2022-12-07T11:16:08;3.28;;;1.73;;
23718;SDS011;43322;52.230;5.702;2022-12-07T11:18:48;4.93;;;2.00;;
23718;SDS011;43322;52.230;5.702;2022-12-07T11:21:26;4.15;;;1.88;;
23718;SDS011;43322;52.230;5.702;2022-12-07T11:24:01;4.63;;;1.80;;
23718;SDS011;43322;52.230;5.702;2022-12-07T11:26:36;3.08;;;1.95;;
23718;SDS011;43322;52.230;5.702;2022-12-07T11:29:19;4.40;;;2.15;;
23718;SDS011;43322;52.230;5.702;2022-12-07T11:31:58;4.25;;;1.77;;
23718;SDS011;43322;52.230;5.702;2022-12-07T11:34:39;5.90;;;2.05;;
23718;SDS011;43322;52.230;5.702;2022-12-07T11:37:13;3.28;;;1.95;;
23718;SDS011;43322;52.230;5.702;2022-12-07T11:39:44;8.95;;;2.65;;
23718;SDS011;43322;52.230;5.702;2022-12-07T11:42:19;2.95;;;1.65;;
23718;SDS011;43322;52.230;5.702;2022-12-07T11:44:51;6.75;;;2.20;;
23718;SDS011;43322;52.230;5.702;2022-12-07T11:47:22;4.57;;;1.83;;
23718;SDS011;43322;52.230;5.702;2022-12-07T11:49:58;4.93;;;2.00;;
23718;SDS011;43322;52.230;5.702;2022-12-07T11:52:39;4.72;;;2.03;;
23718;SDS011;43322;52.230;5.702;2022-12-07T11:55:14;3.53;;;1.67;;
23718;SDS011;43322;52.230;5.702;2022-12-07T11:57:46;2.40;;;2.20;;
23718;SDS011;43322;52.230;5.702;2022-12-07T12:00:20;4.43;;;1.98;;
23718;SDS011;43322;52.230;5.702;2022-12-07T12:02:49;5.82;;;2.28;;
23718;SDS011;43322;52.230;5.702;2022-12-07T12:05:23;5.10;;;2.20;;
23718;SDS011;43322;52.230;5.702;2022-12-07T12:07:53;6.55;;;2.05;;
23718;SDS011;43322;52.230;5.702;2022-12-07T12:10:32;6.03;;;2.15;;
23718;SDS011;43322;52.230;5.702;2022-12-07T12:16:18;4.57;;;2.25;;
23718;SDS011;43322;52.230;5.702;2022-12-07T12:19:16;3.67;;;1.70;;
23718;SDS011;43322;52.230;5.702;2022-12-07T12:21:55;7.32;;;2.00;;
23718;SDS011;43322;52.230;5.702;2022-12-07T12:24:26;5.95;;;1.50;;
23718;SDS011;43322;52.230;5.702;2022-12-07T12:27:01;3.00;;;1.60;;
23718;SDS011;43322;52.230;5.702;2022-12-07T12:29:32;6.00;;;1.83;;
23718;SDS011;43322;52.230;5.702;2022-12-07T12:32:05;2.45;;;1.75;;
23718;SDS011;43322;52.230;5.702;2022-12-07T12:37:47;3.10;;;2.05;;
23718;SDS011;43322;52.230;5.702;2022-12-07T12:49:33;1.83;;;1.38;;
23718;SDS011;43322;52.230;5.702;2022-12-07T12:55:16;7.28;;;1.55;;
23718;SDS011;43322;52.230;5.702;2022-12-07T12:58:25;3.92;;;1.50;;
23718;SDS011;43322;52.230;5.702;2022-12-07T13:04:14;5.82;;;1.90;;
23718;SDS011;43322;52.230;5.702;2022-12-07T13:06:53;5.20;;;1.25;;
23718;SDS011;43322;52.230;5.702;2022-12-07T13:09:21;4.70;;;1.30;;
23718;SDS011;43322;52.230;5.702;2022-12-07T13:11:56;12.40;;;1.67;;
23718;SDS011;43322;52.230;5.702;2022-12-07T13:14:41;7.10;;;1.58;;
23718;SDS011;43322;52.230;5.702;2022-12-07T13:17:09;6.70;;;1.58;;
23718;SDS011;43322;52.230;5.702;2022-12-07T13:22:34;4.07;;;1.17;;
23718;SDS011;43322;52.230;5.702;2022-12-07T13:25:09;2.58;;;1.33;;
23718;SDS011;43322;52.230;5.702;2022-12-07T13:27:41;6.70;;;1.10;;
23718;SDS011;43322;52.230;5.702;2022-12-07T13:30:17;5.53;;;2.00;;
23718;SDS011;43322;52.230;5.702;2022-12-07T13:32:50;3.97;;;1.50;;
23718;SDS011;43322;52.230;5.702;2022-12-07T13:35:26;7.20;;;2.15;;
23718;SDS011;43322;52.230;5.702;2022-12-07T13:37:54;10.50;;;2.40;;
23718;SDS011;43322;52.230;5.702;2022-12-07T13:40:22;9.80;;;2.03;;
23718;SDS011;43322;52.230;5.702;2022-12-07T13:42:58;7.00;;;1.88;;
23718;SDS011;43322;52.230;5.702;2022-12-07T13:45:27;4.68;;;1.60;;
23718;SDS011;43322;52.230;5.702;2022-12-07T13:48:15;3.08;;;1.40;;
23718;SDS011;43322;52.230;5.702;2022-12-07T13:50:52;2.13;;;1.23;;
23718;SDS011;43322;52.230;5.702;2022-12-07T13:53:20;5.97;;;1.20;;
23718;SDS011;43322;52.230;5.702;2022-12-07T13:55:48;5.20;;;1.55;;
23718;SDS011;43322;52.230;5.702;2022-12-07T13:58:16;5.95;;;1.42;;
23718;SDS011;43322;52.230;5.702;2022-12-07T14:00:43;6.32;;;1.90;;
23718;SDS011;43322;52.230;5.702;2022-12-07T14:03:27;3.17;;;1.48;;
23718;SDS011;43322;52.230;5.702;2022-12-07T14:06:03;2.08;;;1.27;;
23718;SDS011;43322;52.230;5.702;2022-12-07T14:08:50;3.53;;;1.40;;
23718;SDS011;43322;52.230;5.702;2022-12-07T14:11:31;2.05;;;1.15;;
23718;SDS011;43322;52.230;5.702;2022-12-07T14:14:00;5.03;;;1.10;;
23718;SDS011;43322;52.230;5.702;2022-12-07T14:16:29;4.03;;;1.58;;
23718;SDS011;43322;52.230;5.702;2022-12-07T14:18:57;1.77;;;1.38;;
23718;SDS011;43322;52.230;5.702;2022-12-07T14:21:26;3.88;;;1.63;;
23718;SDS011;43322;52.230;5.702;2022-12-07T14:26:50;3.63;;;1.60;;
23718;SDS011;43322;52.230;5.702;2022-12-07T14:29:31;2.75;;;1.10;;
23718;SDS011;43322;52.230;5.702;2022-12-07T14:32:10;2.90;;;1.40;;
23718;SDS011;43322;52.230;5.702;2022-12-07T14:34:52;2.88;;;1.38;;
23718;SDS011;43322;52.230;5.702;2022-12-07T14:37:23;1.63;;;1.20;;
23718;SDS011;43322;52.230;5.702;2022-12-07T14:39:50;1.98;;;1.48;;
23718;SDS011;43322;52.230;5.702;2022-12-07T14:42:17;2.92;;;1.27;;
23718;SDS011;43322;52.230;5.702;2022-12-07T14:44:46;1.85;;;1.25;;
23718;SDS011;43322;52.230;5.702;2022-12-07T14:47:12;1.23;;;1.08;;
23718;SDS011;43322;52.230;5.702;2022-12-07T14:49:40;2.00;;;1.23;;
23718;SDS011;43322;52.230;5.702;2022-12-07T14:52:08;2.25;;;1.40;;
23718;SDS011;43322;52.230;5.702;2022-12-07T14:54:39;3.67;;;1.10;;
23718;SDS011;43322;52.230;5.702;2022-12-07T14:57:09;2.72;;;1.23;;
23718;SDS011;43322;52.230;5.702;2022-12-07T14:59:36;2.20;;;1.20;;
23718;SDS011;43322;52.230;5.702;2022-12-07T15:02:05;3.33;;;1.77;;
23718;SDS011;43322;52.230;5.702;2022-12-07T15:04:32;4.63;;;1.35;;
23718;SDS011;43322;52.230;5.702;2022-12-07T15:07:00;1.25;;;1.15;;
23718;SDS011;43322;52.230;5.702;2022-12-07T15:09:29;3.38;;;1.90;;
23718;SDS011;43322;52.230;5.702;2022-12-07T15:11:56;3.95;;;1.73;;
23718;SDS011;43322;52.230;5.702;2022-12-07T15:14:22;2.97;;;1.50;;
23718;SDS011;43322;52.230;5.702;2022-12-07T15:16:49;2.25;;;1.77;;
23718;SDS011;43322;52.230;5.702;2022-12-07T15:19:18;3.13;;;1.85;;
23718;SDS011;43322;52.230;5.702;2022-12-07T15:21:48;2.20;;;1.40;;
23718;SDS011;43322;52.230;5.702;2022-12-07T15:24:17;3.53;;;1.48;;
23718;SDS011;43322;52.230;5.702;2022-12-07T15:26:45;4.10;;;1.27;;
23718;SDS011;43322;52.230;5.702;2022-12-07T15:29:13;2.58;;;1.88;;
23718;SDS011;43322;52.230;5.702;2022-12-07T15:31:41;1.92;;;1.30;;
23718;SDS011;43322;52.230;5.702;2022-12-07T15:34:08;1.92;;;1.65;;
23718;SDS011;43322;52.230;5.702;2022-12-07T15:36:37;3.13;;;2.30;;